Time;durP1;ratioP1;P1;durP2;ratioP2;P2;SDS_P1;SDS_P2;PMS_P1;PMS_P2;Temp;Humidity;BMP_temperature;BMP_pressure;BME280_temperature;BME280_humidity;BME280_pressure;Samples;Min_cycle;Max_cycle;Signal;HPM_P1;HPM_P2
2022/05/17 04:04:44;;;;;;;4.00;2.67;;;12.60;99.90;;;;;;5315250;23;20516;-64
2022/05/17 04:07:10;;;;;;;3.60;3.00;;;12.70;99.90;;;;;;5015226;28;20421;-64
2022/05/17 04:09:36;;;;;;;3.50;3.20;;;12.70;99.90;;;;;;5015157;28;20646;-66
2022/05/17 04:12:03;;;;;;;3.30;3.10;;;12.70;99.90;;;;;;5015190;28;20695;-64
2022/05/17 04:14:29;;;;;;;3.23;2.97;;;12.80;99.90;;;;;;5015110;28;20550;-65
2022/05/17 04:16:54;;;;;;;3.10;2.80;;;12.80;99.90;;;;;;5015375;28;20404;-66
2022/05/17 04:19:20;;;;;;;3.00;2.80;;;12.80;99.90;;;;;;4997574;28;20185;-65
2022/05/17 04:21:47;;;;;;;4.40;3.87;;;12.90;99.90;;;;;;5014763;28;20178;-67
2022/05/17 04:24:14;;;;;;;3.20;2.90;;;13.00;99.90;;;;;;5014496;28;20189;-65
2022/05/17 04:26:40;;;;;;;4.43;4.03;;;13.00;99.90;;;;;;5014662;28;20404;-66
2022/05/17 04:29:07;;;;;;;3.90;3.47;;;13.20;99.90;;;;;;5014666;28;20405;-65
2022/05/17 04:31:33;;;;;;;3.90;3.53;;;13.50;99.90;;;;;;5014053;28;20423;-65
2022/05/17 04:33:59;;;;;;;3.80;3.50;;;13.70;99.90;;;;;;5012633;28;20492;-65
2022/05/17 04:36:25;;;;;;;3.77;3.47;;;13.90;99.90;;;;;;5014226;28;20789;-66
2022/05/17 04:38:51;;;;;;;4.73;4.33;;;14.20;99.90;;;;;;5014809;28;20396;-66
2022/05/17 04:41:16;;;;;;;3.80;3.50;;;14.30;99.90;;;;;;5014412;28;20392;-66
2022/05/17 04:43:42;;;;;;;3.07;2.87;;;14.40;99.90;;;;;;5014130;28;20283;-66
2022/05/17 04:46:09;;;;;;;3.27;3.03;;;14.50;99.90;;;;;;5014755;28;20209;-65
2022/05/17 04:48:35;;;;;;;4.10;3.70;;;14.70;99.90;;;;;;5014104;28;20632;-65
2022/05/17 04:51:07;;;;;;;3.83;3.53;;;14.90;99.90;;;;;;5014477;28;20445;-63
2022/05/17 04:53:34;;;;;;;5.47;3.57;;;15.10;99.90;;;;;;5014258;28;20512;-63
2022/05/17 04:55:59;;;;;;;3.67;3.37;;;15.20;99.90;;;;;;5013340;28;20492;-65
2022/05/17 04:58:25;;;;;;;3.77;3.10;;;15.30;99.90;;;;;;5014041;28;20506;-63
2022/05/17 05:00:52;;;;;;;2.83;2.63;;;15.50;99.90;;;;;;5014084;28;20276;-65
2022/05/17 05:03:18;;;;;;;2.70;2.50;;;15.80;99.90;;;;;;5007556;28;20424;-64
2022/05/17 05:05:44;;;;;;;3.10;2.80;;;16.10;99.90;;;;;;5009181;28;20430;-63
2022/05/17 05:08:09;;;;;;;4.70;3.60;;;16.40;99.90;;;;;;4994282;28;20416;-66
2022/05/17 05:10:35;;;;;;;2.03;1.93;;;16.50;99.90;;;;;;4994484;28;20422;-66
2022/05/17 05:13:01;;;;;;;4.43;3.27;;;16.50;99.90;;;;;;5005015;28;20305;-66
2022/05/17 05:15:27;;;;;;;3.00;2.80;;;16.50;99.90;;;;;;5014319;28;20179;-66
2022/05/17 05:17:53;;;;;;;4.20;2.27;;;16.50;99.90;;;;;;5013996;28;20195;-64
2022/05/17 05:20:18;;;;;;;2.37;2.17;;;16.60;99.90;;;;;;4996421;28;20183;-64
2022/05/17 05:22:44;;;;;;;3.50;3.00;;;16.70;99.90;;;;;;5013571;28;20405;-66
2022/05/17 05:25:12;;;;;;;4.40;3.53;;;16.60;99.90;;;;;;5014052;28;20176;-65
2022/05/17 05:27:40;;;;;;;2.43;2.33;;;16.60;99.90;;;;;;5014206;28;20414;-64
2022/05/17 05:30:08;;;;;;;2.83;2.60;;;16.70;99.90;;;;;;5014731;28;20423;-64
2022/05/17 05:32:34;;;;;;;3.40;3.10;;;16.70;99.90;;;;;;5016080;28;20449;-66
2022/05/17 05:34:59;;;;;;;2.77;2.53;;;16.70;99.90;;;;;;5016173;28;20439;-67
2022/05/17 05:37:25;;;;;;;2.80;2.57;;;16.60;99.90;;;;;;5012485;28;20199;-66
2022/05/17 05:39:50;;;;;;;3.30;3.00;;;16.60;99.90;;;;;;5008987;28;20168;-65
2022/05/17 05:42:16;;;;;;;4.10;2.57;;;16.60;99.90;;;;;;5017981;28;20190;-65
2022/05/17 05:44:42;;;;;;;3.70;3.40;;;16.70;99.90;;;;;;5018370;28;20200;-65
2022/05/17 05:47:07;;;;;;;2.90;2.70;;;16.80;99.90;;;;;;5016755;28;20179;-64
2022/05/17 05:49:33;;;;;;;3.50;3.20;;;16.80;99.90;;;;;;5011567;28;20181;-64
2022/05/17 05:51:59;;;;;;;2.97;2.77;;;16.80;99.90;;;;;;5015037;28;20212;-67
2022/05/17 05:54:24;;;;;;;3.37;3.10;;;16.90;99.90;;;;;;4996684;28;20722;-65
2022/05/17 05:56:50;;;;;;;3.20;2.90;;;16.90;99.90;;;;;;5000809;28;20175;-67
2022/05/17 05:59:16;;;;;;;3.17;2.37;;;16.80;99.90;;;;;;5013552;28;20177;-66
2022/05/17 06:01:41;;;;;;;4.70;3.13;;;16.90;99.90;;;;;;5013641;28;20184;-64
2022/05/17 06:04:07;;;;;;;3.50;3.20;;;16.90;99.90;;;;;;5012679;28;20232;-65
2022/05/17 06:06:35;;;;;;;3.50;2.80;;;17.10;99.90;;;;;;5013271;28;20278;-65
2022/05/17 06:09:01;;;;;;;9.30;4.80;;;17.20;99.90;;;;;;5011302;28;20655;-66
2022/05/17 06:11:26;;;;;;;2.80;2.60;;;17.40;99.90;;;;;;5011304;28;20557;-65
2022/05/17 06:13:52;;;;;;;3.03;2.80;;;17.60;99.90;;;;;;5011506;28;20194;-66
2022/05/17 06:16:18;;;;;;;2.60;2.40;;;17.80;99.90;;;;;;5013362;28;20525;-66
2022/05/17 06:18:43;;;;;;;2.97;2.77;;;17.90;99.90;;;;;;5013230;28;20181;-66
2022/05/17 06:21:09;;;;;;;2.80;2.60;;;18.00;99.90;;;;;;5013412;28;20642;-65
2022/05/17 06:23:35;;;;;;;3.20;2.90;;;18.20;99.90;;;;;;5012517;28;20198;-66
2022/05/17 06:26:01;;;;;;;2.80;2.63;;;18.30;99.90;;;;;;5013268;28;20170;-65
2022/05/17 06:28:27;;;;;;;3.30;3.00;;;18.30;99.90;;;;;;5013165;28;20381;-65
2022/05/17 06:30:53;;;;;;;3.90;3.00;;;18.40;99.90;;;;;;5012714;28;20441;-66
2022/05/17 06:33:20;;;;;;;5.83;3.20;;;18.60;99.90;;;;;;5010263;28;21011;-66
2022/05/17 06:35:48;;;;;;;2.90;2.70;;;18.60;99.90;;;;;;5011348;28;20202;-65
2022/05/17 06:38:15;;;;;;;2.57;2.37;;;18.60;99.90;;;;;;5011263;28;20443;-65
2022/05/17 06:40:41;;;;;;;3.23;2.93;;;18.80;99.90;;;;;;5011263;28;20415;-66
2022/05/17 06:43:07;;;;;;;2.60;2.20;;;19.00;99.90;;;;;;5010503;28;20767;-66
2022/05/17 06:45:33;;;;;;;2.60;2.40;;;19.20;99.90;;;;;;5011020;28;20389;-66
2022/05/17 06:48:00;;;;;;;2.50;2.27;;;19.40;99.90;;;;;;5012727;28;20424;-67
2022/05/17 06:50:27;;;;;;;3.43;3.00;;;19.60;99.90;;;;;;5013053;28;20854;-66
2022/05/17 06:52:52;;;;;;;6.10;2.63;;;19.80;99.90;;;;;;5012284;28;20435;-66
2022/05/17 06:55:18;;;;;;;3.37;2.93;;;20.00;99.90;;;;;;5013540;28;20427;-66
2022/05/17 06:57:44;;;;;;;3.20;2.90;;;20.00;99.90;;;;;;4998834;28;20603;-66
2022/05/17 07:00:12;;;;;;;3.47;3.17;;;20.10;99.90;;;;;;5016646;28;20464;-67
2022/05/17 07:02:39;;;;;;;5.10;4.70;;;20.20;99.90;;;;;;5015601;28;20400;-66
2022/05/17 07:05:06;;;;;;;3.63;3.33;;;20.40;99.90;;;;;;5016413;28;20774;-67
2022/05/17 07:07:32;;;;;;;3.07;2.87;;;20.60;99.90;;;;;;5006760;28;20791;-66
2022/05/17 07:15:26;;;;;;;3.73;2.87;;;21.00;99.90;;;;;;5009244;28;20419;-65
2022/05/17 07:17:52;;;;;;;3.03;2.80;;;21.10;99.90;;;;;;5013642;28;20852;-67
2022/05/17 07:20:18;;;;;;;3.17;2.87;;;21.10;99.90;;;;;;5010457;28;20221;-65
2022/05/17 07:22:44;;;;;;;3.60;3.30;;;21.20;99.90;;;;;;4996874;28;20204;-67
2022/05/17 07:25:11;;;;;;;3.17;2.90;;;21.30;99.90;;;;;;4999253;28;20407;-66
2022/05/17 07:27:37;;;;;;;3.23;2.93;;;21.40;99.90;;;;;;5014679;28;20547;-66
2022/05/17 07:30:04;;;;;;;3.93;2.80;;;21.80;99.90;;;;;;4997056;28;20415;-66
2022/05/17 07:32:30;;;;;;;3.30;2.70;;;22.30;99.90;;;;;;5014463;28;20447;-65
2022/05/17 07:34:56;;;;;;;3.53;2.93;;;22.70;99.90;;;;;;5014186;28;20936;-66
2022/05/17 07:37:21;;;;;;;4.50;3.00;;;23.10;99.90;;;;;;5014487;28;20186;-67
2022/05/17 07:39:47;;;;;;;3.40;3.00;;;23.40;99.90;;;;;;5014686;28;20171;-63
2022/05/17 07:42:13;;;;;;;4.77;2.60;;;23.80;99.90;;;;;;5014367;28;20258;-64
2022/05/17 07:44:39;;;;;;;2.07;1.97;;;24.70;99.90;;;;;;5014620;28;20274;-66
2022/05/17 07:47:05;;;;;;;2.43;2.30;;;25.90;98.10;;;;;;5013677;28;20175;-64
2022/05/17 07:49:32;;;;;;;3.80;2.83;;;27.20;95.60;;;;;;5014762;28;20451;-66
2022/05/17 07:51:58;;;;;;;4.47;4.13;;;28.20;93.90;;;;;;5014626;28;20879;-66
2022/05/17 07:54:24;;;;;;;3.73;3.50;;;29.20;91.80;;;;;;5012363;28;20525;-64
2022/05/17 07:56:50;;;;;;;4.03;3.20;;;30.30;90.40;;;;;;5013941;28;20625;-66
2022/05/17 07:59:15;;;;;;;4.27;2.97;;;31.20;85.00;;;;;;4994949;28;20188;-66
2022/05/17 08:01:41;;;;;;;4.70;2.60;;;32.20;80.80;;;;;;4994685;28;20183;-67
2022/05/17 08:04:07;;;;;;;2.77;2.57;;;33.00;75.50;;;;;;4994152;28;20223;-66
2022/05/17 08:06:35;;;;;;;3.67;3.37;;;33.80;72.50;;;;;;5001830;28;20537;-67
2022/05/17 08:09:01;;;;;;;3.60;3.30;;;34.40;68.00;;;;;;5013041;28;20652;-67
2022/05/17 08:11:27;;;;;;;2.90;2.70;;;34.60;66.70;;;;;;5014127;28;20457;-67
2022/05/17 08:13:53;;;;;;;2.77;2.57;;;34.60;66.10;;;;;;5012978;28;20449;-67
2022/05/17 08:16:18;;;;;;;2.77;2.57;;;34.60;64.60;;;;;;5014077;28;20167;-66
2022/05/17 08:18:44;;;;;;;9.10;7.27;;;34.50;63.40;;;;;;5013656;28;20201;-66
2022/05/17 08:21:10;;;;;;;4.27;3.97;;;34.40;64.30;;;;;;5012608;28;20205;-66
2022/05/17 08:23:36;;;;;;;3.30;3.00;;;34.20;61.50;;;;;;5003449;28;20719;-66
2022/05/17 08:28:45;;;;;;;2.87;2.67;;;33.90;62.50;;;;;;5012594;28;20181;-67
2022/05/17 08:31:11;;;;;;;2.63;2.50;;;34.30;63.90;;;;;;5012087;28;20540;-66
2022/05/17 08:33:38;;;;;;;2.73;2.40;;;34.60;62.30;;;;;;4999271;28;20901;-66
2022/05/17 08:36:12;;;;;;;3.53;2.80;;;35.00;60.60;;;;;;5012901;28;20178;-65
2022/05/17 08:38:42;;;;;;;4.63;2.80;;;35.70;59.00;;;;;;4986424;28;20842;-65
2022/05/17 08:41:14;;;;;;;2.60;2.40;;;36.00;58.00;;;;;;5013532;28;20764;-65
2022/05/17 08:43:56;;;;;;;2.67;2.53;;;35.90;57.50;;;;;;4995029;28;20541;-66
2022/05/17 08:46:44;;;;;;;2.80;2.60;;;36.10;57.20;;;;;;4995422;28;20418;-64
2022/05/17 08:49:18;;;;;;;2.10;2.00;;;36.20;57.00;;;;;;5012658;28;20576;-65
2022/05/17 08:52:04;;;;;;;2.67;2.50;;;36.50;56.90;;;;;;5013026;28;20456;-66
2022/05/17 08:54:35;;;;;;;2.30;2.20;;;37.00;55.20;;;;;;5010598;28;20951;-66
2022/05/17 08:57:20;;;;;;;3.33;2.60;;;37.00;53.60;;;;;;5012754;28;20414;-65
2022/05/17 08:59:47;;;;;;;2.50;2.30;;;36.70;53.60;;;;;;5012151;28;20764;-65
2022/05/17 09:02:41;;;;;;;2.67;2.47;;;36.20;54.40;;;;;;5012450;28;20424;-65
2022/05/17 09:05:38;;;;;;;2.80;2.57;;;35.40;54.80;;;;;;4992890;28;20529;-66
2022/05/17 09:08:14;;;;;;;2.60;2.40;;;34.90;56.10;;;;;;4993447;28;20457;-66
2022/05/17 09:11:13;;;;;;;3.20;2.30;;;34.70;55.90;;;;;;5006069;28;20451;-67
2022/05/17 09:13:56;;;;;;;3.00;2.60;;;34.10;56.60;;;;;;4991217;28;20450;-66
2022/05/17 09:16:27;;;;;;;3.07;2.87;;;33.40;57.80;;;;;;5012083;28;20464;-65
2022/05/17 09:18:53;;;;;;;2.50;2.30;;;32.90;58.60;;;;;;5012256;28;20428;-66
2022/05/17 09:21:38;;;;;;;2.57;2.47;;;32.30;59.80;;;;;;5012587;28;20425;-66
2022/05/17 09:24:12;;;;;;;2.97;2.70;;;32.40;60.20;;;;;;4992738;28;20203;-65
2022/05/17 09:26:39;;;;;;;3.50;3.20;;;32.40;62.20;;;;;;4996929;28;20907;-66
2022/05/17 09:29:14;;;;;;;2.70;2.50;;;32.30;61.00;;;;;;5012294;28;20488;-66
2022/05/17 09:31:48;;;;;;;2.73;2.53;;;32.50;62.90;;;;;;5012397;28;20777;-66
2022/05/17 09:34:40;;;;;;;2.73;2.53;;;32.80;60.40;;;;;;4996423;28;20792;-67
2022/05/17 09:37:08;;;;;;;2.77;2.57;;;32.40;60.90;;;;;;5000434;28;20532;-67
2022/05/17 09:39:35;;;;;;;2.93;2.73;;;32.10;61.70;;;;;;5009824;28;20965;-66
2022/05/17 09:42:04;;;;;;;2.37;2.23;;;32.10;63.90;;;;;;5011203;28;20509;-65
2022/05/17 09:44:33;;;;;;;4.20;2.47;;;31.90;60.50;;;;;;4994069;28;20560;-64
2022/05/17 09:47:02;;;;;;;3.70;2.57;;;32.10;61.40;;;;;;5008481;28;20501;-65
2022/05/17 09:52:45;;;;;;;3.43;2.43;;;32.80;60.50;;;;;;4999454;28;20483;-66
2022/05/17 09:55:23;;;;;;;2.63;2.43;;;32.90;58.30;;;;;;4984596;28;20505;-64
2022/05/17 09:58:07;;;;;;;2.30;2.10;;;32.50;58.50;;;;;;5006068;28;20781;-66
2022/05/17 10:00:41;;;;;;;3.43;2.87;;;32.70;58.60;;;;;;5011143;28;20508;-65
2022/05/17 10:03:16;;;;;;;2.87;2.67;;;33.30;58.00;;;;;;5023593;28;20455;-65
2022/05/17 10:05:55;;;;;;;1.97;1.87;;;33.60;57.20;;;;;;5015367;28;20791;-66
2022/05/17 10:08:21;;;;;;;5.23;2.40;;;34.00;55.50;;;;;;5015648;28;20426;-65
2022/05/17 10:11:00;;;;;;;3.33;2.87;;;34.60;55.30;;;;;;5012007;28;20410;-66
2022/05/17 10:13:34;;;;;;;2.47;2.27;;;34.80;54.50;;;;;;5011620;28;20191;-65
2022/05/17 10:16:44;;;;;;;2.60;2.40;;;34.90;54.80;;;;;;5012167;28;20497;-64
2022/05/17 10:19:38;;;;;;;4.67;3.07;;;34.50;55.30;;;;;;4974422;28;20431;-64
2022/05/17 10:22:22;;;;;;;2.47;2.27;;;34.40;56.90;;;;;;4995364;28;20528;-65
2022/05/17 10:24:51;;;;;;;2.40;2.10;;;34.40;55.80;;;;;;5010221;28;20434;-65
2022/05/17 10:27:55;;;;;;;1.87;1.77;;;34.00;56.20;;;;;;5010434;28;20431;-65
2022/05/17 10:30:44;;;;;;;3.70;2.13;;;33.80;55.20;;;;;;4989287;28;20461;-65
2022/05/17 10:33:16;;;;;;;1.77;1.67;;;33.90;53.30;;;;;;5013405;28;20457;-65
2022/05/17 10:35:55;;;;;;;1.70;1.60;;;34.00;53.10;;;;;;5014495;28;20413;-64
2022/05/17 10:38:25;;;;;;;2.53;2.30;;;34.20;54.00;;;;;;5034867;28;20427;-64
2022/05/17 10:40:53;;;;;;;2.63;2.43;;;34.00;53.80;;;;;;5028515;28;20444;-64
2022/05/17 10:43:29;;;;;;;2.37;2.17;;;33.80;52.20;;;;;;5015074;28;20441;-64
2022/05/17 10:46:37;;;;;;;1.40;1.30;;;33.60;53.20;;;;;;5015629;28;20408;-65
2022/05/17 10:49:11;;;;;;;3.70;2.30;;;33.30;51.30;;;;;;4916682;29;20414;-64
2022/05/17 10:52:03;;;;;;;1.93;1.83;;;33.20;53.20;;;;;;4916100;29;20445;-64
2022/05/17 10:54:37;;;;;;;2.57;1.60;;;33.10;52.60;;;;;;4902291;29;20458;-64
2022/05/17 10:57:12;;;;;;;1.90;1.80;;;33.00;52.80;;;;;;4897379;29;20426;-64
2022/05/17 10:59:48;;;;;;;4.37;2.07;;;32.70;54.10;;;;;;4897802;29;20445;-64
2022/05/17 11:02:26;;;;;;;1.70;1.60;;;32.40;53.50;;;;;;4913352;29;20473;-64
2022/05/17 11:05:29;;;;;;;4.00;1.77;;;32.00;54.10;;;;;;4916434;29;20835;-64
2022/05/17 11:08:06;;;;;;;1.70;1.60;;;31.20;54.80;;;;;;4865182;29;20937;-64
2022/05/17 11:10:45;;;;;;;1.90;1.67;;;31.00;54.20;;;;;;4897238;29;20419;-65
2022/05/17 11:13:23;;;;;;;3.37;1.87;;;30.50;55.70;;;;;;4896938;29;20447;-65
2022/05/17 11:15:55;;;;;;;1.50;1.33;;;30.30;54.20;;;;;;4897800;29;20423;-64
2022/05/17 11:18:59;;;;;;;1.83;1.70;;;30.10;52.70;;;;;;4905652;29;20525;-63
2022/05/17 11:21:30;;;;;;;1.50;1.40;;;29.60;53.20;;;;;;5013445;28;20464;-64
2022/05/17 11:24:20;;;;;;;1.30;1.13;;;28.90;53.90;;;;;;5017784;28;20434;-66
2022/05/17 11:27:24;;;;;;;2.90;1.50;;;28.50;55.50;;;;;;5021038;28;20982;-66
2022/05/17 11:29:55;;;;;;;1.60;1.50;;;28.10;55.80;;;;;;5022864;28;20429;-65
2022/05/17 11:32:25;;;;;;;1.50;1.40;;;28.00;56.70;;;;;;5034260;28;20409;-64
2022/05/17 11:34:56;;;;;;;2.10;1.10;;;27.70;57.90;;;;;;5025743;28;20879;-64
2022/05/17 11:37:34;;;;;;;2.00;1.20;;;27.40;57.40;;;;;;5014299;28;20441;-65
2022/05/17 11:40:08;;;;;;;2.03;1.93;;;27.00;57.60;;;;;;4995204;28;20447;-65
2022/05/17 11:43:40;;;;;;;1.17;1.17;;;26.70;59.20;;;;;;5007263;28;20469;-65
2022/05/17 11:45:45;;;;;;;5.43;1.57;;;26.50;60.50;;;;;;5000002;28;20396;-65
2022/05/17 11:48:16;;;;;;;17.63;1.43;;;26.60;59.20;;;;;;5007286;28;20447;-66
2022/05/17 11:51:04;;;;;;;1.00;1.00;;;26.50;59.30;;;;;;5013890;28;20767;-66
2022/05/17 11:53:34;;;;;;;1.27;1.10;;;26.50;59.20;;;;;;5014443;28;20517;-66
2022/05/17 11:56:32;;;;;;;0.90;0.90;;;26.50;57.70;;;;;;5015587;28;20418;-66
2022/05/17 11:59:09;;;;;;;1.23;1.13;;;26.50;56.30;;;;;;5013883;28;20431;-66
2022/05/17 12:01:35;;;;;;;1.60;1.50;;;26.60;59.20;;;;;;5012798;28;20456;-67
2022/05/17 12:04:26;;;;;;;1.97;1.70;;;26.60;65.00;;;;;;4995143;28;20517;-66
2022/05/17 12:06:52;;;;;;;1.57;1.47;;;26.50;69.00;;;;;;4994131;28;20436;-66
2022/05/17 12:09:20;;;;;;;1.53;1.40;;;26.60;68.80;;;;;;5004116;28;20458;-66
2022/05/17 12:12:14;;;;;;;1.03;1.03;;;26.50;62.10;;;;;;4999423;28;20588;-69
2022/05/17 12:15:08;;;;;;;1.40;1.30;;;26.50;62.10;;;;;;5014495;28;20425;-65
2022/05/17 12:17:48;;;;;;;0.93;0.93;;;26.30;61.20;;;;;;5015069;28;20448;-68
2022/05/17 12:20:45;;;;;;;1.70;1.60;;;26.20;60.70;;;;;;5014741;28;20429;-67
2022/05/17 12:23:44;;;;;;;1.50;1.40;;;26.00;62.70;;;;;;5014525;28;21286;-67
2022/05/17 12:26:40;;;;;;;1.27;1.27;;;25.80;65.30;;;;;;5014976;28;20406;-64
2022/05/17 12:32:05;;;;;;;2.63;1.77;;;25.60;65.30;;;;;;5015059;28;20480;-68
2022/05/17 12:34:30;;;;;;;1.93;1.57;;;25.60;65.00;;;;;;5011356;28;20492;-64
2022/05/17 12:37:16;;;;;;;1.50;1.40;;;25.60;65.80;;;;;;5014926;28;20369;-66
2022/05/17 12:45:20;;;;;;;1.47;1.37;;;25.30;70.10;;;;;;5014517;28;20965;-67
2022/05/17 12:47:54;;;;;;;2.80;1.50;;;25.40;68.50;;;;;;5014346;28;20406;-67
2022/05/17 12:50:24;;;;;;;1.30;1.07;;;25.50;68.90;;;;;;5014748;28;20460;-65
2022/05/17 12:52:56;;;;;;;1.50;1.40;;;25.60;68.10;;;;;;5013774;28;20435;-66
2022/05/17 12:55:26;;;;;;;1.50;1.40;;;25.70;67.00;;;;;;5014562;28;20389;-66
2022/05/17 12:57:52;;;;;;;1.40;1.30;;;25.70;66.00;;;;;;5014294;28;20411;-66
2022/05/17 13:00:29;;;;;;;1.43;1.33;;;25.60;66.80;;;;;;5014150;28;20551;-66
2022/05/17 13:02:58;;;;;;;2.27;2.07;;;25.60;65.60;;;;;;5013487;28;20798;-65
2022/05/17 13:05:26;;;;;;;5.83;1.70;;;25.50;66.30;;;;;;5014126;28;20512;-66
2022/05/17 13:08:18;;;;;;;1.60;1.50;;;25.50;69.60;;;;;;5014322;28;20867;-67
2022/05/17 13:11:19;;;;;;;1.60;1.50;;;25.60;69.50;;;;;;5005674;28;20402;-67
2022/05/17 13:13:46;;;;;;;1.60;1.30;;;25.70;66.90;;;;;;5002416;28;20419;-66
2022/05/17 13:16:33;;;;;;;2.90;1.70;;;25.80;67.10;;;;;;5014173;28;20381;-65
2022/05/17 13:19:02;;;;;;;1.23;1.23;;;25.80;65.00;;;;;;5013871;28;20476;-68
2022/05/17 13:21:41;;;;;;;1.80;1.40;;;25.70;66.00;;;;;;5013946;28;20489;-65
2022/05/17 13:24:16;;;;;;;2.00;1.47;;;25.60;65.80;;;;;;5013481;28;20769;-65
2022/05/17 13:26:46;;;;;;;1.53;1.43;;;25.70;65.10;;;;;;5013843;28;20424;-67
2022/05/17 13:29:27;;;;;;;1.90;1.30;;;25.70;65.90;;;;;;5013856;28;20403;-66
2022/05/17 13:32:04;;;;;;;1.50;1.40;;;25.70;65.70;;;;;;5013774;28;20421;-68
2022/05/17 13:34:35;;;;;;;2.40;1.23;;;25.70;66.30;;;;;;5013668;28;20421;-64
2022/05/17 13:37:12;;;;;;;1.97;1.60;;;25.70;66.30;;;;;;5013799;28;20414;-67
2022/05/17 13:39:58;;;;;;;4.83;1.47;;;25.70;66.40;;;;;;5013820;28;20389;-66
2022/05/17 13:42:46;;;;;;;1.97;1.87;;;25.70;66.10;;;;;;5011051;28;20793;-66
2022/05/17 13:45:34;;;;;;;1.30;1.30;;;25.80;67.40;;;;;;5013114;28;20855;-65
2022/05/17 13:48:01;;;;;;;2.90;1.43;;;25.80;66.20;;;;;;5013031;28;20425;-65
2022/05/17 13:50:30;;;;;;;1.00;1.00;;;25.70;65.30;;;;;;5013709;28;20743;-65
2022/05/17 13:53:01;;;;;;;1.20;1.10;;;25.80;64.30;;;;;;5012774;28;20762;-66
2022/05/17 13:55:35;;;;;;;1.40;1.40;;;25.70;63.80;;;;;;5012151;28;20747;-61
2022/05/17 13:58:09;;;;;;;1.30;1.30;;;25.70;64.70;;;;;;5009957;28;20490;-64
2022/05/17 14:00:38;;;;;;;4.03;1.50;;;25.60;64.70;;;;;;5012638;28;20439;-62
2022/05/17 14:03:18;;;;;;;1.23;1.23;;;25.60;65.60;;;;;;5010807;28;20447;-63
2022/05/17 14:05:58;;;;;;;1.50;1.40;;;25.50;66.20;;;;;;5015435;28;20488;-64
2022/05/17 14:14:07;;;;;;;2.23;1.40;;;25.80;66.20;;;;;;5013936;28;20539;-64
2022/05/17 14:16:33;;;;;;;1.50;1.40;;;25.90;65.40;;;;;;5012944;28;20400;-61
2022/05/17 14:19:01;;;;;;;1.77;1.60;;;26.00;65.70;;;;;;5015642;28;20417;-60
2022/05/17 14:21:28;;;;;;;1.50;1.40;;;26.00;66.20;;;;;;5029160;28;20419;-60
2022/05/17 14:23:54;;;;;;;1.33;1.33;;;26.00;66.60;;;;;;5009265;28;20416;-65
2022/05/17 14:26:21;;;;;;;1.47;1.37;;;26.00;66.60;;;;;;5015417;28;20401;-64
2022/05/17 14:28:47;;;;;;;1.33;1.23;;;26.00;66.40;;;;;;5021060;28;20437;-61
2022/05/17 14:31:27;;;;;;;1.57;1.47;;;25.90;65.60;;;;;;5027616;28;20392;-61
2022/05/17 14:33:54;;;;;;;1.27;1.27;;;25.90;65.40;;;;;;5016352;28;20416;-61
2022/05/17 14:36:25;;;;;;;1.77;1.47;;;25.90;67.20;;;;;;5031752;28;20383;-59
2022/05/17 14:38:52;;;;;;;1.63;1.53;;;25.90;64.90;;;;;;5019630;28;20966;-59
2022/05/17 14:41:18;;;;;;;1.13;1.13;;;25.90;64.80;;;;;;5026750;28;20464;-60
2022/05/17 14:43:44;;;;;;;1.20;1.20;;;25.80;64.60;;;;;;5026668;28;20436;-64
2022/05/17 14:46:14;;;;;;;1.83;1.73;;;25.80;62.00;;;;;;5019928;28;20256;-59
2022/05/17 14:48:40;;;;;;;1.03;1.03;;;25.80;62.50;;;;;;5014554;28;20392;-65
2022/05/17 14:51:08;;;;;;;1.10;1.10;;;25.70;62.70;;;;;;5028180;28;20487;-62
2022/05/17 14:53:34;;;;;;;2.27;1.70;;;25.80;62.90;;;;;;5025439;28;20948;-63
2022/05/17 14:56:00;;;;;;;1.30;1.30;;;25.70;63.70;;;;;;5020549;28;20414;-64
2022/05/17 14:58:26;;;;;;;1.20;1.20;;;25.70;65.10;;;;;;5021349;28;20428;-60
2022/05/17 15:00:52;;;;;;;2.87;1.83;;;25.60;68.30;;;;;;5030275;28;20167;-61
2022/05/17 15:03:29;;;;;;;2.03;1.93;;;25.60;69.10;;;;;;5022956;28;20605;-59
2022/05/17 15:05:55;;;;;;;1.77;1.67;;;25.60;70.70;;;;;;5020971;28;20415;-61
2022/05/17 15:08:21;;;;;;;1.80;1.70;;;25.50;69.90;;;;;;5031154;28;20401;-62
2022/05/17 15:10:47;;;;;;;1.70;1.60;;;25.40;70.20;;;;;;5019553;28;20455;-62
2022/05/17 15:13:12;;;;;;;1.20;1.20;;;25.40;70.40;;;;;;5019311;28;20445;-62
2022/05/17 15:15:43;;;;;;;1.73;1.63;;;25.50;70.60;;;;;;5017932;28;20190;-63
2022/05/17 15:18:13;;;;;;;2.10;1.90;;;25.50;69.40;;;;;;5030437;28;20170;-64
2022/05/17 15:20:40;;;;;;;1.53;1.53;;;25.50;69.40;;;;;;5018289;28;20399;-61
2022/05/17 15:23:06;;;;;;;1.40;1.40;;;25.50;68.70;;;;;;5018917;28;20949;-63
2022/05/17 15:25:32;;;;;;;1.53;1.43;;;25.50;68.10;;;;;;5025321;28;20750;-65
2022/05/17 15:27:59;;;;;;;1.73;1.30;;;25.50;67.90;;;;;;5019579;28;20736;-62
2022/05/17 15:30:27;;;;;;;1.53;1.43;;;25.50;66.60;;;;;;5012181;28;20385;-63
2022/05/17 15:32:54;;;;;;;1.43;1.33;;;25.40;67.20;;;;;;5021170;28;20473;-61
2022/05/17 15:35:23;;;;;;;1.40;1.40;;;25.40;66.90;;;;;;5023206;28;20451;-63
2022/05/17 15:37:49;;;;;;;1.00;1.00;;;25.40;67.90;;;;;;5021885;28;20403;-65
2022/05/17 15:40:15;;;;;;;2.50;1.57;;;25.40;65.50;;;;;;5031032;28;20869;-63
2022/05/17 15:42:43;;;;;;;1.70;1.60;;;25.40;65.60;;;;;;5015012;28;20281;-61
2022/05/17 15:45:11;;;;;;;1.50;1.40;;;25.40;66.20;;;;;;5021680;28;20600;-65
2022/05/17 15:53:22;;;;;;;1.40;1.40;;;25.30;64.10;;;;;;5021215;28;20453;-64
2022/05/17 15:56:04;;;;;;;1.20;1.20;;;25.30;64.10;;;;;;5009225;28;20430;-63
2022/05/17 15:58:33;;;;;;;1.60;1.50;;;25.30;62.90;;;;;;5017810;28;20417;-63
2022/05/17 16:00:59;;;;;;;1.50;1.40;;;25.30;62.90;;;;;;5028244;28;20458;-62
2022/05/17 16:03:44;;;;;;;1.60;1.50;;;25.20;62.90;;;;;;5015492;28;20420;-62
2022/05/17 16:06:11;;;;;;;4.17;1.80;;;25.20;63.50;;;;;;4996230;28;20417;-66
2022/05/17 16:08:36;;;;;;;2.10;1.37;;;25.20;63.40;;;;;;5011913;28;20956;-69
2022/05/17 16:13:47;;;;;;;1.63;1.40;;;25.20;64.50;;;;;;5015189;28;20738;-65
2022/05/17 16:16:13;;;;;;;1.50;1.40;;;25.20;64.40;;;;;;5028801;28;20388;-64
2022/05/17 16:18:46;;;;;;;1.70;1.30;;;25.20;64.10;;;;;;5017278;28;20844;-63
2022/05/17 16:21:12;;;;;;;1.57;1.47;;;25.10;63.80;;;;;;5013808;28;20388;-62
2022/05/17 16:23:38;;;;;;;1.33;1.10;;;25.10;63.70;;;;;;5022876;28;20819;-63
2022/05/17 16:26:04;;;;;;;1.40;1.30;;;25.20;63.60;;;;;;5016367;28;20422;-61
2022/05/17 16:28:31;;;;;;;1.13;1.10;;;25.20;63.20;;;;;;5011663;28;20404;-61
2022/05/17 16:30:57;;;;;;;1.33;1.33;;;25.20;63.70;;;;;;5013003;28;20480;-63
2022/05/17 16:33:23;;;;;;;3.43;3.23;;;25.20;64.80;;;;;;5011640;28;20999;-62
2022/05/17 16:35:49;;;;;;;1.30;1.20;;;25.20;63.50;;;;;;5013342;28;20530;-62
2022/05/17 16:38:17;;;;;;;1.30;1.20;;;25.20;63.70;;;;;;5014973;28;20183;-65
2022/05/17 16:40:45;;;;;;;2.20;1.60;;;25.20;64.30;;;;;;5008695;28;20471;-62
2022/05/17 16:43:11;;;;;;;1.70;1.60;;;25.20;64.00;;;;;;5013417;28;20461;-65
2022/05/17 16:45:42;;;;;;;1.17;1.13;;;25.30;63.90;;;;;;5014015;28;20552;-65
2022/05/17 16:48:10;;;;;;;1.17;1.17;;;25.30;64.10;;;;;;5021002;28;20527;-64
2022/05/17 16:50:52;;;;;;;1.20;1.10;;;25.30;65.10;;;;;;5026144;28;20421;-63
2022/05/17 16:53:18;;;;;;;1.03;1.03;;;25.30;64.70;;;;;;5020669;28;20444;-66
2022/05/17 16:55:44;;;;;;;1.40;1.40;;;25.30;65.30;;;;;;5019149;28;20438;-61
2022/05/17 16:58:11;;;;;;;1.47;1.37;;;25.30;65.30;;;;;;5029886;28;20905;-62
2022/05/17 17:00:38;;;;;;;1.50;1.40;;;25.30;64.90;;;;;;5016822;28;20209;-63
2022/05/17 17:03:07;;;;;;;2.07;1.97;;;25.30;66.20;;;;;;5014575;28;20859;-61
2022/05/17 17:05:34;;;;;;;3.60;1.80;;;25.30;66.00;;;;;;5021850;28;20434;-59
2022/05/17 17:08:01;;;;;;;1.30;1.30;;;25.30;66.30;;;;;;5010348;28;20798;-60
2022/05/17 17:10:32;;;;;;;1.40;1.40;;;25.40;65.30;;;;;;5002030;28;20732;-61
2022/05/17 17:12:58;;;;;;;1.37;1.27;;;25.40;66.20;;;;;;5017515;28;20802;-61
2022/05/17 17:15:24;;;;;;;3.90;2.40;;;25.40;66.00;;;;;;5022132;28;20403;-60
2022/05/17 17:17:51;;;;;;;1.50;1.40;;;25.40;65.30;;;;;;5029999;28;20413;-62
2022/05/17 17:20:19;;;;;;;2.17;1.20;;;25.40;65.70;;;;;;5019580;28;20421;-60
2022/05/17 17:22:45;;;;;;;1.80;1.70;;;25.30;66.20;;;;;;5018501;28;20477;-64
2022/05/17 17:25:12;;;;;;;1.73;1.43;;;25.20;66.70;;;;;;5024445;28;20407;-60
2022/05/17 17:27:39;;;;;;;1.60;1.50;;;25.10;67.10;;;;;;5023355;28;20478;-63
2022/05/17 17:30:08;;;;;;;1.60;1.50;;;24.90;68.20;;;;;;5025929;28;20463;-64
2022/05/17 17:38:06;;;;;;;2.07;1.97;;;24.60;70.20;;;;;;5014741;28;20491;-58
2022/05/17 17:40:34;;;;;;;1.40;1.30;;;24.50;69.80;;;;;;5024156;28;20420;-61
2022/05/17 17:42:59;;;;;;;1.33;1.30;;;24.50;70.20;;;;;;5022344;28;20215;-62
2022/05/17 17:45:25;;;;;;;1.60;1.50;;;24.40;71.10;;;;;;5016789;28;20425;-66
2022/05/17 17:47:52;;;;;;;1.80;1.70;;;24.30;71.80;;;;;;5022793;28;20178;-63
2022/05/17 17:50:27;;;;;;;1.80;1.70;;;24.30;71.80;;;;;;5020497;28;20425;-61
2022/05/17 17:52:57;;;;;;;1.63;1.53;;;24.30;72.20;;;;;;5012843;28;20369;-62